KBAM/BAM METAR and TAF weather

Enter ICAO airport designator
Station Type Date Time Source
KBAM METAR 2019/12/11 15:15 UTC NOAA

KBAM 111515Z AUTO 25008KT 10SM CLR 03/00 A3018 RMK AO1


Station Type Date Time Source
KBAM Decoded METAR 2019/12/11 15:15 UTC NOAA

Station name not available
Dec 11, 2019 - 10:15 AM EST / 2019.12.11 1515 UTC
Wind: from the WSW (250 degrees) at 9 MPH (8 KT):0
Visibility: 10 mile(s):0
Sky conditions: clear
Temperature: 37 F (3 C)
Dew Point: 32 F (0 C)
Relative Humidity: 80%
Pressure (altimeter): 30.18 in. Hg (1022 hPa)
ob: KBAM 111515Z AUTO 25008KT 10SM CLR 03/00 A3018 RMK AO1
cycle: 15

Station Type Date Time Source
KBAM TAF 2019/12/11 12:39 UTC NOAA

TAF KBAM 111137Z 1112/1212 VRB05KT P6SM VCSH BKN060 OVC100
FM111800 23006KT P6SM SCT040 BKN120
FM120500 22006KT P6SM VCSH BKN030 OVC050
FM121000 22006KT P6SM -SHSNRA FEW015 BKN025 OVC035

Example: see airport list